sensor_id;sensor_type;location;lat;lon;timestamp;pressure;altitude;pressure_sealevel;temperature;humidity
51468;BME280;37545;45.302;-122.946;2023-04-21T00:00:33;101901.72;;;8.24;100.00
51468;BME280;37545;45.302;-122.946;2023-04-21T00:03:02;101911.78;;;8.19;100.00
51468;BME280;37545;45.302;-122.946;2023-04-21T00:05:31;101916.31;;;8.24;100.00
51468;BME280;37545;45.302;-122.946;2023-04-21T00:08:00;101915.84;;;8.31;100.00
51468;BME280;37545;45.302;-122.946;2023-04-21T00:10:29;101915.16;;;8.33;100.00
51468;BME280;37545;45.302;-122.946;2023-04-21T00:12:59;101901.38;;;8.33;100.00
51468;BME280;37545;45.302;-122.946;2023-04-21T00:15:28;101892.84;;;8.34;100.00
51468;BME280;37545;45.302;-122.946;2023-04-21T00:17:56;101889.44;;;8.35;100.00
51468;BME280;37545;45.302;-122.946;2023-04-21T00:20:25;101881.81;;;8.36;100.00
51468;BME280;37545;45.302;-122.946;2023-04-21T00:22:54;101875.41;;;8.30;100.00
51468;BME280;37545;45.302;-122.946;2023-04-21T00:25:24;101877.75;;;8.25;100.00
51468;BME280;37545;45.302;-122.946;2023-04-21T00:27:52;101869.28;;;8.28;100.00
51468;BME280;37545;45.302;-122.946;2023-04-21T00:30:23;101877.81;;;8.27;100.00
51468;BME280;37545;45.302;-122.946;2023-04-21T00:32:52;101873.63;;;8.29;100.00
51468;BME280;37545;45.302;-122.946;2023-04-21T00:35:21;101867.94;;;8.34;100.00
51468;BME280;37545;45.302;-122.946;2023-04-21T00:37:50;101867.22;;;8.37;100.00
51468;BME280;37545;45.302;-122.946;2023-04-21T00:40:18;101853.34;;;8.35;100.00
51468;BME280;37545;45.302;-122.946;2023-04-21T00:42:47;101860.19;;;8.34;100.00
51468;BME280;37545;45.302;-122.946;2023-04-21T00:45:16;101851.66;;;8.35;100.00
51468;BME280;37545;45.302;-122.946;2023-04-21T00:47:46;101840.03;;;8.42;100.00
51468;BME280;37545;45.302;-122.946;2023-04-21T00:50:15;101838.50;;;8.46;100.00
51468;BME280;37545;45.302;-122.946;2023-04-21T00:52:44;101840.38;;;8.48;100.00
51468;BME280;37545;45.302;-122.946;2023-04-21T00:55:14;101836.09;;;8.49;100.00
51468;BME280;37545;45.302;-122.946;2023-04-21T00:57:43;101841.97;;;8.46;100.00
51468;BME280;37545;45.302;-122.946;2023-04-21T01:00:28;101834.09;;;8.43;100.00
51468;BME280;37545;45.302;-122.946;2023-04-21T01:03:05;101833.88;;;8.40;100.00
51468;BME280;37545;45.302;-122.946;2023-04-21T01:05:34;101831.31;;;8.40;100.00
51468;BME280;37545;45.302;-122.946;2023-04-21T01:08:05;101838.41;;;8.44;100.00
51468;BME280;37545;45.302;-122.946;2023-04-21T01:10:34;101833.09;;;8.41;100.00
51468;BME280;37545;45.302;-122.946;2023-04-21T01:13:03;101829.09;;;8.46;100.00
51468;BME280;37545;45.302;-122.946;2023-04-21T01:15:32;101831.56;;;8.45;100.00
51468;BME280;37545;45.302;-122.946;2023-04-21T01:18:01;101826.84;;;8.37;100.00
51468;BME280;37545;45.302;-122.946;2023-04-21T01:20:34;101827.94;;;8.41;100.00
51468;BME280;37545;45.302;-122.946;2023-04-21T01:23:06;101825.44;;;8.43;100.00
51468;BME280;37545;45.302;-122.946;2023-04-21T01:25:35;101832.38;;;8.44;100.00
51468;BME280;37545;45.302;-122.946;2023-04-21T01:28:04;101823.91;;;8.46;100.00
51468;BME280;37545;45.302;-122.946;2023-04-21T01:30:32;101821.50;;;8.49;100.00
51468;BME280;37545;45.302;-122.946;2023-04-21T01:33:01;101819.00;;;8.51;100.00
51468;BME280;37545;45.302;-122.946;2023-04-21T01:35:30;101826.50;;;8.46;100.00
51468;BME280;37545;45.302;-122.946;2023-04-21T01:37:59;101820.47;;;8.46;100.00
51468;BME280;37545;45.302;-122.946;2023-04-21T01:40:32;101814.38;;;8.45;100.00
51468;BME280;37545;45.302;-122.946;2023-04-21T01:43:01;101817.25;;;8.50;100.00
51468;BME280;37545;45.302;-122.946;2023-04-21T01:45:31;101812.88;;;8.49;100.00
51468;BME280;37545;45.302;-122.946;2023-04-21T01:47:59;101812.25;;;8.53;100.00
51468;BME280;37545;45.302;-122.946;2023-04-21T01:50:28;101806.22;;;8.52;100.00
51468;BME280;37545;45.302;-122.946;2023-04-21T01:52:57;101806.13;;;8.51;100.00
51468;BME280;37545;45.302;-122.946;2023-04-21T01:55:26;101793.13;;;8.49;100.00
51468;BME280;37545;45.302;-122.946;2023-04-21T01:57:56;101784.66;;;8.52;100.00
51468;BME280;37545;45.302;-122.946;2023-04-21T02:00:25;101783.00;;;8.52;100.00
51468;BME280;37545;45.302;-122.946;2023-04-21T02:02:54;101783.97;;;8.54;100.00
51468;BME280;37545;45.302;-122.946;2023-04-21T02:05:22;101787.34;;;8.53;100.00
51468;BME280;37545;45.302;-122.946;2023-04-21T02:07:51;101789.91;;;8.53;100.00
51468;BME280;37545;45.302;-122.946;2023-04-21T02:10:20;101786.56;;;8.54;100.00
51468;BME280;37545;45.302;-122.946;2023-04-21T02:12:48;101787.34;;;8.53;100.00
51468;BME280;37545;45.302;-122.946;2023-04-21T02:15:19;101787.44;;;8.55;100.00
51468;BME280;37545;45.302;-122.946;2023-04-21T02:17:48;101784.84;;;8.55;100.00
51468;BME280;37545;45.302;-122.946;2023-04-21T02:20:17;101780.22;;;8.49;100.00
51468;BME280;37545;45.302;-122.946;2023-04-21T02:22:47;101779.44;;;8.50;100.00
51468;BME280;37545;45.302;-122.946;2023-04-21T02:25:15;101778.63;;;8.51;100.00
51468;BME280;37545;45.302;-122.946;2023-04-21T02:27:45;101780.47;;;8.54;100.00
51468;BME280;37545;45.302;-122.946;2023-04-21T02:30:14;101770.16;;;8.54;100.00
51468;BME280;37545;45.302;-122.946;2023-04-21T02:32:44;101779.44;;;8.50;100.00
51468;BME280;37545;45.302;-122.946;2023-04-21T02:35:13;101783.78;;;8.51;100.00
51468;BME280;37545;45.302;-122.946;2023-04-21T02:37:42;101782.19;;;8.53;100.00
51468;BME280;37545;45.302;-122.946;2023-04-21T02:40:12;101783.97;;;8.54;100.00
51468;BME280;37545;45.302;-122.946;2023-04-21T02:42:42;101774.53;;;8.55;100.00
51468;BME280;37545;45.302;-122.946;2023-04-21T02:45:11;101777.03;;;8.53;100.00
51468;BME280;37545;45.302;-122.946;2023-04-21T02:47:39;101772.94;;;8.57;100.00
51468;BME280;37545;45.302;-122.946;2023-04-21T02:50:12;101769.44;;;8.56;100.00
51468;BME280;37545;45.302;-122.946;2023-04-21T02:52:41;101770.25;;;8.55;100.00
51468;BME280;37545;45.302;-122.946;2023-04-21T02:55:10;101769.13;;;8.50;100.00
51468;BME280;37545;45.302;-122.946;2023-04-21T02:57:39;101753.72;;;8.52;100.00
51468;BME280;37545;45.302;-122.946;2023-04-21T03:00:09;101757.84;;;8.48;100.00
51468;BME280;37545;45.302;-122.946;2023-04-21T03:02:39;101759.59;;;8.49;100.00
51468;BME280;37545;45.302;-122.946;2023-04-21T03:05:10;101757.84;;;8.48;100.00
51468;BME280;37545;45.302;-122.946;2023-04-21T03:07:39;101756.13;;;8.49;100.00
51468;BME280;37545;45.302;-122.946;2023-04-21T03:10:07;101747.66;;;8.51;100.00
51468;BME280;37545;45.302;-122.946;2023-04-21T03:12:36;101754.63;;;8.52;100.00
51468;BME280;37545;45.302;-122.946;2023-04-21T03:15:06;101747.84;;;8.54;100.00
51468;BME280;37545;45.302;-122.946;2023-04-21T03:17:34;101754.69;;;8.54;100.00
51468;BME280;37545;45.302;-122.946;2023-04-21T03:20:04;101757.34;;;8.55;100.00
51468;BME280;37545;45.302;-122.946;2023-04-21T03:22:38;101757.34;;;8.55;100.00
51468;BME280;37545;45.302;-122.946;2023-04-21T03:25:07;101753.91;;;8.55;100.00
51468;BME280;37545;45.302;-122.946;2023-04-21T03:27:36;101753.81;;;8.53;100.00
51468;BME280;37545;45.302;-122.946;2023-04-21T03:30:06;101761.69;;;8.56;100.00
51468;BME280;37545;45.302;-122.946;2023-04-21T03:32:35;101758.41;;;8.59;100.00
51468;BME280;37545;45.302;-122.946;2023-04-21T03:35:05;101763.63;;;8.60;100.00
51468;BME280;37545;45.302;-122.946;2023-04-21T03:37:36;101763.63;;;8.60;100.00
51468;BME280;37545;45.302;-122.946;2023-04-21T03:40:07;101768.78;;;8.60;100.00
51468;BME280;37545;45.302;-122.946;2023-04-21T03:42:36;101769.69;;;8.61;100.00
51468;BME280;37545;45.302;-122.946;2023-04-21T03:45:06;101774.94;;;8.63;100.00
51468;BME280;37545;45.302;-122.946;2023-04-21T03:47:36;101771.63;;;8.65;100.00
51468;BME280;37545;45.302;-122.946;2023-04-21T03:50:05;101771.63;;;8.65;100.00
51468;BME280;37545;45.302;-122.946;2023-04-21T03:52:36;101782.13;;;8.68;100.00
51468;BME280;37545;45.302;-122.946;2023-04-21T03:55:05;101787.09;;;8.65;100.00
51468;BME280;37545;45.302;-122.946;2023-04-21T03:57:38;101783.81;;;8.68;100.00
51468;BME280;37545;45.302;-122.946;2023-04-21T04:00:08;101788.91;;;8.66;100.00
51468;BME280;37545;45.302;-122.946;2023-04-21T04:02:38;101780.25;;;8.66;100.00
51468;BME280;37545;45.302;-122.946;2023-04-21T04:05:07;101782.81;;;8.66;100.00
51468;BME280;37545;45.302;-122.946;2023-04-21T04:07:37;101789.22;;;8.72;100.00
51468;BME280;37545;45.302;-122.946;2023-04-21T04:10:06;101790.13;;;8.73;100.00
51468;BME280;37545;45.302;-122.946;2023-04-21T04:12:35;101785.09;;;8.76;100.00
51468;BME280;37545;45.302;-122.946;2023-04-21T04:15:04;101799.00;;;8.78;100.00
51468;BME280;37545;45.302;-122.946;2023-04-21T04:17:34;101805.19;;;8.81;100.00
51468;BME280;37545;45.302;-122.946;2023-04-21T04:20:03;101811.94;;;8.79;100.00
51468;BME280;37545;45.302;-122.946;2023-04-21T04:22:34;101802.53;;;8.80;100.00
51468;BME280;37545;45.302;-122.946;2023-04-21T04:25:04;101806.09;;;8.82;100.00
51468;BME280;37545;45.302;-122.946;2023-04-21T04:27:33;101817.44;;;8.86;100.00
51468;BME280;37545;45.302;-122.946;2023-04-21T04:30:02;101816.72;;;8.88;100.00
51468;BME280;37545;45.302;-122.946;2023-04-21T04:32:32;101820.13;;;8.87;100.00
51468;BME280;37545;45.302;-122.946;2023-04-21T04:35:01;101834.06;;;8.91;100.00
51468;BME280;37545;45.302;-122.946;2023-04-21T04:37:29;101834.00;;;8.89;100.00
51468;BME280;37545;45.302;-122.946;2023-04-21T04:39:59;101838.19;;;8.87;100.00
51468;BME280;37545;45.302;-122.946;2023-04-21T04:42:32;101837.31;;;8.87;100.00
51468;BME280;37545;45.302;-122.946;2023-04-21T04:45:02;101839.88;;;8.87;100.00
51468;BME280;37545;45.302;-122.946;2023-04-21T04:47:31;101842.53;;;8.88;100.00
51468;BME280;37545;45.302;-122.946;2023-04-21T04:50:00;101834.00;;;8.89;100.00
51468;BME280;37545;45.302;-122.946;2023-04-21T04:52:29;101834.72;;;8.87;100.00
51468;BME280;37545;45.302;-122.946;2023-04-21T04:54:57;101838.34;;;8.90;100.00
51468;BME280;37545;45.302;-122.946;2023-04-21T04:57:26;101848.91;;;8.95;100.00
51468;BME280;37545;45.302;-122.946;2023-04-21T04:59:57;101835.22;;;8.96;100.00
51468;BME280;37545;45.302;-122.946;2023-04-21T05:02:26;101857.78;;;9.00;100.00
51468;BME280;37545;45.302;-122.946;2023-04-21T05:04:54;101855.19;;;9.00;100.00
51468;BME280;37545;45.302;-122.946;2023-04-21T05:07:23;101870.00;;;9.02;100.00
51468;BME280;37545;45.302;-122.946;2023-04-21T05:09:52;101875.31;;;9.06;100.00
51468;BME280;37545;45.302;-122.946;2023-04-21T05:12:20;101879.66;;;9.07;100.00
51468;BME280;37545;45.302;-122.946;2023-04-21T05:14:49;101866.50;;;9.02;100.00
51468;BME280;37545;45.302;-122.946;2023-04-21T05:17:19;101879.16;;;9.14;100.00
51468;BME280;37545;45.302;-122.946;2023-04-21T05:19:48;101894.03;;;9.18;100.00
51468;BME280;37545;45.302;-122.946;2023-04-21T05:22:16;101897.59;;;9.20;100.00
51468;BME280;37545;45.302;-122.946;2023-04-21T05:24:45;101888.72;;;9.15;100.00
51468;BME280;37545;45.302;-122.946;2023-04-21T05:27:14;101894.38;;;9.24;100.00
51468;BME280;37545;45.302;-122.946;2023-04-21T05:29:43;101901.13;;;9.22;100.00
51468;BME280;37545;45.302;-122.946;2023-04-21T05:32:11;101892.50;;;9.21;100.00
51468;BME280;37545;45.302;-122.946;2023-04-21T05:34:42;101902.75;;;9.20;100.00
51468;BME280;37545;45.302;-122.946;2023-04-21T05:37:11;101901.28;;;9.25;100.00
51468;BME280;37545;45.302;-122.946;2023-04-21T05:39:40;101895.41;;;9.28;100.00
51468;BME280;37545;45.302;-122.946;2023-04-21T05:42:09;101911.16;;;9.32;100.00
51468;BME280;37545;45.302;-122.946;2023-04-21T05:44:38;101914.78;;;9.36;100.00
51468;BME280;37545;45.302;-122.946;2023-04-21T05:47:07;101929.56;;;9.38;100.00
51468;BME280;37545;45.302;-122.946;2023-04-21T05:49:36;101919.41;;;9.41;100.00
51468;BME280;37545;45.302;-122.946;2023-04-21T05:52:08;101921.00;;;9.39;100.00
51468;BME280;37545;45.302;-122.946;2023-04-21T05:54:37;101927.78;;;9.37;100.00
51468;BME280;37545;45.302;-122.946;2023-04-21T05:57:06;101938.19;;;9.39;100.00
51468;BME280;37545;45.302;-122.946;2023-04-21T05:59:35;101939.25;;;9.42;100.00
51468;BME280;37545;45.302;-122.946;2023-04-21T06:02:03;101945.53;;;9.48;100.00
51468;BME280;37545;45.302;-122.946;2023-04-21T06:04:32;101945.72;;;9.51;100.00
51468;BME280;37545;45.302;-122.946;2023-04-21T06:07:06;101949.25;;;9.53;100.00
51468;BME280;37545;45.302;-122.946;2023-04-21T06:09:36;101957.97;;;9.55;100.00
51468;BME280;37545;45.302;-122.946;2023-04-21T06:12:05;101955.38;;;9.55;100.00
51468;BME280;37545;45.302;-122.946;2023-04-21T06:14:33;101958.69;;;9.52;100.00
51468;BME280;37545;45.302;-122.946;2023-04-21T06:17:02;101949.09;;;9.50;100.00
51468;BME280;37545;45.302;-122.946;2023-04-21T06:19:36;101947.34;;;9.49;100.00
51468;BME280;37545;45.302;-122.946;2023-04-21T06:22:07;101957.66;;;9.49;100.00
51468;BME280;37545;45.302;-122.946;2023-04-21T06:24:35;101966.94;;;9.45;100.00
51468;BME280;37545;45.302;-122.946;2023-04-21T06:27:09;101974.69;;;9.45;100.00
51468;BME280;37545;45.302;-122.946;2023-04-21T06:29:39;101982.53;;;9.47;100.00
51468;BME280;37545;45.302;-122.946;2023-04-21T06:32:08;101981.56;;;9.44;100.00
51468;BME280;37545;45.302;-122.946;2023-04-21T06:34:37;101987.69;;;9.47;100.00
51468;BME280;37545;45.302;-122.946;2023-04-21T06:37:08;101990.28;;;9.47;100.00
51468;BME280;37545;45.302;-122.946;2023-04-21T06:39:36;101985.25;;;9.50;100.00
51468;BME280;37545;45.302;-122.946;2023-04-21T06:42:08;101987.84;;;9.50;100.00
51468;BME280;37545;45.302;-122.946;2023-04-21T06:44:37;101994.00;;;9.52;100.00
51468;BME280;37545;45.302;-122.946;2023-04-21T06:47:06;101997.56;;;9.54;100.00
51468;BME280;37545;45.302;-122.946;2023-04-21T06:49:35;101999.31;;;9.55;100.00
51468;BME280;37545;45.302;-122.946;2023-04-21T06:52:04;101999.16;;;9.52;100.00
51468;BME280;37545;45.302;-122.946;2023-04-21T06:54:34;101997.56;;;9.54;100.00
51468;BME280;37545;45.302;-122.946;2023-04-21T06:57:03;102002.72;;;9.54;100.00
51468;BME280;37545;45.302;-122.946;2023-04-21T06:59:32;102002.63;;;9.52;100.00
51468;BME280;37545;45.302;-122.946;2023-04-21T07:02:01;102006.91;;;9.52;100.00
51468;BME280;37545;45.302;-122.946;2023-04-21T07:04:30;102002.56;;;9.51;100.00
51468;BME280;37545;45.302;-122.946;2023-04-21T07:06:58;102017.34;;;9.53;100.00
51468;BME280;37545;45.302;-122.946;2023-04-21T07:09:27;102014.66;;;9.52;100.00
51468;BME280;37545;45.302;-122.946;2023-04-21T07:11:58;102009.50;;;9.52;100.00
51468;BME280;37545;45.302;-122.946;2023-04-21T07:14:26;102012.06;;;9.52;100.00
51468;BME280;37545;45.302;-122.946;2023-04-21T07:16:55;102008.66;;;9.53;100.00
51468;BME280;37545;45.302;-122.946;2023-04-21T07:19:24;102014.81;;;9.55;100.00
51468;BME280;37545;45.302;-122.946;2023-04-21T07:21:52;102014.03;;;9.56;100.00
51468;BME280;37545;45.302;-122.946;2023-04-21T07:24:21;102013.78;;;9.51;100.00
51468;BME280;37545;45.302;-122.946;2023-04-21T07:26:50;102017.16;;;9.50;100.00
51468;BME280;37545;45.302;-122.946;2023-04-21T07:29:20;102015.38;;;9.49;100.00
51468;BME280;37545;45.302;-122.946;2023-04-21T07:31:49;102019.00;;;9.53;100.00
51468;BME280;37545;45.302;-122.946;2023-04-21T07:34:19;102019.19;;;9.56;100.00
51468;BME280;37545;45.302;-122.946;2023-04-21T07:36:55;102020.81;;;9.54;100.00
51468;BME280;37545;45.302;-122.946;2023-04-21T07:39:23;102024.13;;;9.51;100.00
51468;BME280;37545;45.302;-122.946;2023-04-21T07:41:52;102032.66;;;9.50;100.00
51468;BME280;37545;45.302;-122.946;2023-04-21T07:44:23;102038.75;;;9.51;100.00
51468;BME280;37545;45.302;-122.946;2023-04-21T07:46:51;102031.94;;;9.53;100.00
51468;BME280;37545;45.302;-122.946;2023-04-21T07:49:20;102032.59;;;9.49;100.00
51468;BME280;37545;45.302;-122.946;2023-04-21T07:51:49;102030.75;;;9.46;100.00
51468;BME280;37545;45.302;-122.946;2023-04-21T07:54:18;102041.75;;;9.43;100.00
51468;BME280;37545;45.302;-122.946;2023-04-21T07:56:46;102044.28;;;9.42;100.00
51468;BME280;37545;45.302;-122.946;2023-04-21T07:59:15;102041.59;;;9.40;100.00
51468;BME280;37545;45.302;-122.946;2023-04-21T08:01:46;102036.34;;;9.39;100.00
51468;BME280;37545;45.302;-122.946;2023-04-21T08:04:16;102040.72;;;9.40;100.00
51468;BME280;37545;45.302;-122.946;2023-04-21T08:06:45;102042.50;;;9.41;100.00
51468;BME280;37545;45.302;-122.946;2023-04-21T08:09:13;102047.66;;;9.41;100.00
51468;BME280;37545;45.302;-122.946;2023-04-21T08:11:42;102054.69;;;9.43;100.00
51468;BME280;37545;45.302;-122.946;2023-04-21T08:14:12;102055.84;;;9.49;100.00
51468;BME280;37545;45.302;-122.946;2023-04-21T08:16:41;102062.06;;;9.52;100.00
51468;BME280;37545;45.302;-122.946;2023-04-21T08:19:11;102043.97;;;9.52;100.00
51468;BME280;37545;45.302;-122.946;2023-04-21T08:21:40;102044.94;;;9.54;100.00
51468;BME280;37545;45.302;-122.946;2023-04-21T08:24:08;102046.75;;;9.55;100.00
51468;BME280;37545;45.302;-122.946;2023-04-21T08:26:37;102068.44;;;9.59;100.00
51468;BME280;37545;45.302;-122.946;2023-04-21T08:29:06;102078.00;;;9.60;100.00
51468;BME280;37545;45.302;-122.946;2023-04-21T08:31:36;102083.31;;;9.63;100.00
51468;BME280;37545;45.302;-122.946;2023-04-21T08:34:04;102080.91;;;9.66;100.00
51468;BME280;37545;45.302;-122.946;2023-04-21T08:36:34;102085.28;;;9.67;100.00
51468;BME280;37545;45.302;-122.946;2023-04-21T08:39:03;102090.50;;;9.69;100.00
51468;BME280;37545;45.302;-122.946;2023-04-21T08:41:32;102101.03;;;9.72;100.00
51468;BME280;37545;45.302;-122.946;2023-04-21T08:44:02;102104.66;;;9.75;100.00
51468;BME280;37545;45.302;-122.946;2023-04-21T08:46:31;102109.09;;;9.78;100.00
51468;BME280;37545;45.302;-122.946;2023-04-21T08:49:01;102104.91;;;9.80;100.00
51468;BME280;37545;45.302;-122.946;2023-04-21T08:51:30;102106.59;;;9.79;100.00
51468;BME280;37545;45.302;-122.946;2023-04-21T08:54:01;102112.66;;;9.80;100.00
51468;BME280;37545;45.302;-122.946;2023-04-21T08:56:29;102119.53;;;9.79;100.00
51468;BME280;37545;45.302;-122.946;2023-04-21T08:58:58;102108.22;;;9.77;100.00
51468;BME280;37545;45.302;-122.946;2023-04-21T09:01:27;102112.50;;;9.77;100.00
51468;BME280;37545;45.302;-122.946;2023-04-21T09:04:15;102125.69;;;9.81;100.00
51468;BME280;37545;45.302;-122.946;2023-04-21T09:06:44;102131.91;;;9.85;100.00
51468;BME280;37545;45.302;-122.946;2023-04-21T09:09:14;102132.84;;;9.87;100.00
51468;BME280;37545;45.302;-122.946;2023-04-21T09:11:43;102141.53;;;9.88;100.00
51468;BME280;37545;45.302;-122.946;2023-04-21T09:14:12;102147.50;;;9.86;100.00
51468;BME280;37545;45.302;-122.946;2023-04-21T09:16:43;102149.09;;;9.84;100.00
51468;BME280;37545;45.302;-122.946;2023-04-21T09:19:13;102153.38;;;9.84;100.00
51468;BME280;37545;45.302;-122.946;2023-04-21T09:21:43;102153.28;;;9.82;100.00
51468;BME280;37545;45.302;-122.946;2023-04-21T09:24:14;102141.28;;;9.83;100.00
51468;BME280;37545;45.302;-122.946;2023-04-21T09:26:43;102147.19;;;9.80;100.00
51468;BME280;37545;45.302;-122.946;2023-04-21T09:29:12;102143.63;;;9.78;100.00
51468;BME280;37545;45.302;-122.946;2023-04-21T09:31:43;102142.63;;;9.76;100.00
51468;BME280;37545;45.302;-122.946;2023-04-21T09:34:19;102139.84;;;9.73;100.00
51468;BME280;37545;45.302;-122.946;2023-04-21T09:36:58;102138.00;;;9.71;100.00
51468;BME280;37545;45.302;-122.946;2023-04-21T09:39:30;102139.84;;;9.73;100.00
51468;BME280;37545;45.302;-122.946;2023-04-21T09:41:59;102138.25;;;9.75;100.00
51468;BME280;37545;45.302;-122.946;2023-04-21T09:44:28;102140.13;;;9.78;100.00
51468;BME280;37545;45.302;-122.946;2023-04-21T09:46:59;102136.84;;;9.80;100.00
51468;BME280;37545;45.302;-122.946;2023-04-21T09:49:29;102136.91;;;9.82;100.00
51468;BME280;37545;45.302;-122.946;2023-04-21T09:51:59;102145.53;;;9.82;100.00
51468;BME280;37545;45.302;-122.946;2023-04-21T09:54:30;102148.06;;;9.81;100.00
51468;BME280;37545;45.302;-122.946;2023-04-21T09:57:00;102144.41;;;9.77;100.00
51468;BME280;37545;45.302;-122.946;2023-04-21T09:59:31;102148.44;;;9.72;100.00
51468;BME280;37545;45.302;-122.946;2023-04-21T10:02:01;102156.81;;;9.68;100.00
51468;BME280;37545;45.302;-122.946;2023-04-21T10:04:33;102155.06;;;9.67;100.00
51468;BME280;37545;45.302;-122.946;2023-04-21T10:07:02;102160.03;;;9.64;100.00
51468;BME280;37545;45.302;-122.946;2023-04-21T10:09:35;102160.75;;;9.61;100.00
51468;BME280;37545;45.302;-122.946;2023-04-21T10:12:06;102158.16;;;9.61;100.00
51468;BME280;37545;45.302;-122.946;2023-04-21T10:14:35;102163.06;;;9.57;100.00
51468;BME280;37545;45.302;-122.946;2023-04-21T10:17:04;102164.78;;;9.56;100.00
51468;BME280;37545;45.302;-122.946;2023-04-21T10:19:35;102162.09;;;9.55;100.00
51468;BME280;37545;45.302;-122.946;2023-04-21T10:22:06;102174.22;;;9.56;100.00
51468;BME280;37545;45.302;-122.946;2023-04-21T10:24:38;102181.25;;;9.58;100.00
51468;BME280;37545;45.302;-122.946;2023-04-21T10:27:09;102183.94;;;9.60;100.00
51468;BME280;37545;45.302;-122.946;2023-04-21T10:29:39;102174.41;;;9.59;100.00
51468;BME280;37545;45.302;-122.946;2023-04-21T10:32:09;102181.97;;;9.56;100.00
51468;BME280;37545;45.302;-122.946;2023-04-21T10:34:37;102186.34;;;9.57;100.00
51468;BME280;37545;45.302;-122.946;2023-04-21T10:37:16;102193.22;;;9.56;100.00
51468;BME280;37545;45.302;-122.946;2023-04-21T10:39:51;102191.34;;;9.54;100.00
51468;BME280;37545;45.302;-122.946;2023-04-21T10:42:23;102192.78;;;9.49;100.00
51468;BME280;37545;45.302;-122.946;2023-04-21T10:44:59;102194.44;;;9.48;100.00
51468;BME280;37545;45.302;-122.946;2023-04-21T10:47:34;102208.19;;;9.47;100.00
51468;BME280;37545;45.302;-122.946;2023-04-21T10:50:15;102198.56;;;9.44;100.00
51468;BME280;37545;45.302;-122.946;2023-04-21T10:52:45;102200.16;;;9.42;100.00
51468;BME280;37545;45.302;-122.946;2023-04-21T10:55:16;102199.19;;;9.40;100.00
51468;BME280;37545;45.302;-122.946;2023-04-21T10:57:46;102198.22;;;9.38;100.00
51468;BME280;37545;45.302;-122.946;2023-04-21T11:00:16;102203.22;;;9.35;100.00
51468;BME280;37545;45.302;-122.946;2023-04-21T11:02:56;102207.50;;;9.35;100.00
51468;BME280;37545;45.302;-122.946;2023-04-21T11:05:29;102208.22;;;9.32;100.00
51468;BME280;37545;45.302;-122.946;2023-04-21T11:08:07;102204.53;;;9.29;100.00
51468;BME280;37545;45.302;-122.946;2023-04-21T11:10:52;102201.81;;;9.26;100.00
51468;BME280;37545;45.302;-122.946;2023-04-21T11:13:23;102210.34;;;9.25;100.00
51468;BME280;37545;45.302;-122.946;2023-04-21T11:16:00;102212.03;;;9.24;100.00
51468;BME280;37545;45.302;-122.946;2023-04-21T11:18:43;102204.19;;;9.22;100.00
51468;BME280;37545;45.302;-122.946;2023-04-21T11:21:14;102196.97;;;9.17;100.00
51468;BME280;37545;45.302;-122.946;2023-04-21T11:23:51;102205.34;;;9.13;100.00
51468;BME280;37545;45.302;-122.946;2023-04-21T11:26:31;102188.09;;;9.12;100.00
51468;BME280;37545;45.302;-122.946;2023-04-21T11:29:01;102198.41;;;9.12;100.00
51468;BME280;37545;45.302;-122.946;2023-04-21T11:31:30;102206.31;;;9.15;100.00
51468;BME280;37545;45.302;-122.946;2023-04-21T11:33:59;102201.94;;;9.14;100.00
51468;BME280;37545;45.302;-122.946;2023-04-21T11:36:32;102201.00;;;9.12;100.00
51468;BME280;37545;45.302;-122.946;2023-04-21T11:39:04;102213.09;;;9.13;100.00
51468;BME280;37545;45.302;-122.946;2023-04-21T11:41:38;102209.69;;;9.14;100.00
51468;BME280;37545;45.302;-122.946;2023-04-21T11:44:08;102212.28;;;9.14;100.00
51468;BME280;37545;45.302;-122.946;2023-04-21T11:46:37;102213.91;;;9.12;100.00
51468;BME280;37545;45.302;-122.946;2023-04-21T11:49:12;102206.84;;;9.09;100.00
51468;BME280;37545;45.302;-122.946;2023-04-21T11:51:43;102215.31;;;9.07;100.00
51468;BME280;37545;45.302;-122.946;2023-04-21T11:54:13;102218.00;;;9.08;100.00
51468;BME280;37545;45.302;-122.946;2023-04-21T11:56:46;102229.41;;;9.12;100.00
51468;BME280;37545;45.302;-122.946;2023-04-21T11:59:16;102229.31;;;9.10;100.00
51468;BME280;37545;45.302;-122.946;2023-04-21T12:01:49;102221.19;;;9.04;100.00
51468;BME280;37545;45.302;-122.946;2023-04-21T12:04:19;102227.16;;;9.03;100.00
51468;BME280;37545;45.302;-122.946;2023-04-21T12:06:56;102203.44;;;8.95;100.00
51468;BME280;37545;45.302;-122.946;2023-04-21T12:09:25;102221.28;;;9.06;100.00
51468;BME280;37545;45.302;-122.946;2023-04-21T12:11:57;102224.91;;;9.09;100.00
51468;BME280;37545;45.302;-122.946;2023-04-21T12:14:27;102231.00;;;9.10;100.00
51468;BME280;37545;45.302;-122.946;2023-04-21T12:16:57;102234.19;;;9.06;100.00
51468;BME280;37545;45.302;-122.946;2023-04-21T12:19:36;102239.34;;;9.06;100.00
51468;BME280;37545;45.302;-122.946;2023-04-21T12:22:10;102228.16;;;9.05;100.00
51468;BME280;37545;45.302;-122.946;2023-04-21T12:24:40;102230.78;;;9.07;100.00
51468;BME280;37545;45.302;-122.946;2023-04-21T12:27:11;102225.63;;;9.07;100.00
51468;BME280;37545;45.302;-122.946;2023-04-21T12:29:41;102227.44;;;9.08;100.00
51468;BME280;37545;45.302;-122.946;2023-04-21T12:32:10;102230.00;;;9.08;100.00
51468;BME280;37545;45.302;-122.946;2023-04-21T12:34:39;102236.16;;;9.10;100.00